Time;durP1;ratioP1;P1;durP2;ratioP2;P2;SDS_P1;SDS_P2;PMS_P1;PMS_P2;Temp;Humidity;BMP_temperature;BMP_pressure;BME280_temperature;BME280_humidity;BME280_pressure;Samples;Min_cycle;Max_cycle;Signal;HPM_P1;HPM_P2
2023/09/20 00:01:00;;;;;;;7.90;2.20;;;;;;;24.38;56.75;100744.41;5082621;28;20429;-83
2023/09/20 00:03:55;;;;;;;5.78;2.47;;;;;;;24.35;57.00;100748.00;5075439;28;20764;-82
2023/09/20 00:06:50;;;;;;;36.28;11.60;;;;;;;24.36;57.48;100757.13;5080289;28;20051;-82
2023/09/20 00:09:45;;;;;;;3.28;1.80;;;;;;;24.44;57.22;100761.44;5082512;28;20044;-83
2023/09/20 00:12:37;;;;;;;;;;;;;;;24.48;56.94;100754.66;5080986;28;20043;-83
2023/09/20 00:15:31;;;;;;;8.30;2.45;;;;;;;24.46;57.12;100759.06;5082322;28;19912;-82
2023/09/20 00:18:27;;;;;;;3.95;1.73;;;;;;;24.47;56.81;100757.84;5075351;28;20405;-83
2023/09/20 00:21:19;;;;;;;7.90;2.38;;;;;;;24.46;57.10;100759.84;5079500;28;20051;-81
2023/09/20 00:24:11;;;;;;;;;;;;;;;24.48;56.84;100756.66;5082497;28;20039;-85
2023/09/20 00:27:00;;;;;;;;;;;;;;;24.46;57.00;100770.97;5079175;28;19912;-84
2023/09/20 00:29:52;;;;;;;;;;;;;;;24.44;56.83;100761.44;5081527;28;19912;-84
2023/09/20 00:32:45;;;;;;;;;;;;;;;24.33;56.47;100766.31;5081946;28;20365;-84
2023/09/20 00:35:39;;;;;;;;;;;;;;;24.29;57.41;100767.09;5075418;28;19912;-84
2023/09/20 00:38:31;;;;;;;;;;;;;;;24.32;57.53;100754.38;5082143;28;20361;-85
2023/09/20 00:41:22;;;;;;;;;;;;;;;24.22;57.27;100763.59;5080184;28;20321;-84
2023/09/20 00:44:14;;;;;;;;;;;;;;;24.13;57.36;100763.19;5074994;28;19920;-83
2023/09/20 00:47:06;;;;;;;;;;;;;;;24.04;57.66;100760.06;5078306;28;19913;-83
2023/09/20 00:49:56;;;;;;;;;;;;;;;23.85;57.77;100764.94;5081286;28;19912;-85
2023/09/20 00:52:46;;;;;;;;;;;;;;;23.73;58.12;100756.25;5078085;28;19916;-85
2023/09/20 00:55:34;;;;;;;;;;;;;;;23.73;58.82;100753.50;5081751;28;19913;-84
2023/09/20 00:58:27;;;;;;;;;;;;;;;23.77;59.17;100743.94;5079405;28;19912;-84
2023/09/20 01:01:19;;;;;;;;;;;;;;;23.81;58.63;100752.28;5080785;28;19917;-85
2023/09/20 01:04:11;;;;;;;;;;;;;;;23.60;58.93;100747.59;5081121;28;19912;-85
2023/09/20 01:07:00;;;;;;;;;;;;;;;23.35;58.47;100756.00;5078431;28;20381;-85
2023/09/20 01:09:52;;;;;;;;;;;;;;;23.27;59.60;100756.41;5080743;28;19912;-84
2023/09/20 01:12:45;;;;;;;;;;;;;;;23.20;58.94;100750.88;5073966;28;20376;-86
2023/09/20 01:15:38;;;;;;;;;;;;;;;23.16;59.87;100744.56;5080361;28;19912;-85
2023/09/20 01:18:35;;;;;;;;;;;;;;;23.07;59.68;100741.38;5081490;28;20558;-85
2023/09/20 01:21:27;;;;;;;;;;;;;;;23.05;59.97;100747.34;5080418;28;19917;-84
2023/09/20 01:24:19;;;;;;;;;;;;;;;22.97;59.56;100738.22;5076494;28;19912;-84
2023/09/20 01:27:11;;;;;;;;;;;;;;;22.95;59.92;100739.84;5076694;28;19912;-84
2023/09/20 01:30:03;;;;;;;;;;;;;;;23.00;59.79;100740.22;5080481;28;20394;-85
2023/09/20 01:32:54;;;;;;;;;;;;;;;23.08;60.04;100745.75;5080337;28;20304;-85
2023/09/20 01:35:46;;;;;;;;;;;;;;;23.02;59.58;100745.34;5074371;28;19912;-84
2023/09/20 01:38:38;;;;;;;;;;;;;;;22.82;60.14;100744.97;5081197;28;20376;-84
2023/09/20 01:41:31;;;;;;;;;;;;;;;21.78;64.23;100756.28;5074714;28;19916;-84
2023/09/20 01:44:20;;;;;;;;;;;;;;;21.84;65.74;100770.53;5081119;28;19912;-84
2023/09/20 01:47:13;;;;;;;;;;;;;;;21.57;66.41;100772.78;5076114;28;19913;-85
2023/09/20 01:50:05;;;;;;;;;;;;;;;21.71;65.60;100770.88;5079070;28;19916;-85
2023/09/20 01:52:59;;;;;;;;;;;;;;;22.27;64.85;100777.00;5074486;28;19912;-85
2023/09/20 01:55:51;;;;;;;;;;;;;;;22.52;63.65;100778.63;5073753;28;19916;-84
2023/09/20 01:58:43;;;;;;;;;;;;;;;22.72;63.33;100786.56;5073970;28;19908;-85
2023/09/20 02:01:35;;;;;;;;;;;;;;;22.61;63.39;100784.56;5078878;28;20316;-85
2023/09/20 02:04:21;;;;;;;;;;;;;;;22.68;62.37;100785.75;5079834;28;19912;-86
2023/09/20 02:07:13;;;;;;;;;;;;;;;22.40;64.31;100775.44;5075850;28;19912;-85
2023/09/20 02:10:07;;;;;;;;;;;;;;;21.92;65.06;100780.44;5079746;28;19916;-84
2023/09/20 02:12:59;;;;;;;;;;;;;;;22.20;65.49;100779.78;5073583;28;19912;-85
2023/09/20 02:15:51;;;;;;;;;;;;;;;21.75;66.76;100768.91;5073299;28;19913;-84
2023/09/20 02:18:43;;;;;;;;;;;;;;;21.54;66.74;100774.34;5080215;28;19913;-84
2023/09/20 02:21:31;;;;;;;;;;;;;;;21.50;66.79;100769.97;5073508;28;19917;-83
2023/09/20 02:24:23;;;;;;;;;;;;;;;21.74;67.90;100777.59;5075852;28;19913;-83
2023/09/20 02:27:15;;;;;;;;;;;;;;;22.00;66.13;100769.00;5073098;28;20389;-83
2023/09/20 02:30:07;;;;;;;;;;;;;;;21.71;66.75;100767.31;5079152;28;19912;-83
2023/09/20 02:32:59;;;;;;;;;;;;;;;21.82;66.29;100768.16;5072956;28;19912;-84
2023/09/20 02:35:48;;;;;;;;;;;;;;;21.44;67.58;100766.78;5079434;28;20373;-84
2023/09/20 02:38:40;;;;;;;;;;;;;;;21.91;66.46;100773.31;5076031;28;19912;-84
2023/09/20 02:41:33;;;;;;;;;;;;;;;21.58;67.65;100764.09;5062460;28;20313;-84
2023/09/20 02:44:26;;;;;;;;;;;;;;;21.45;67.63;100762.03;5058299;28;19912;-83
2023/09/20 02:47:18;;;;;;;;;;;;;;;21.08;69.23;100768.50;5070298;28;19912;-84
2023/09/20 02:50:08;;;;;;;;;;;;;;;21.12;70.34;100763.81;5079123;28;19912;-84
2023/09/20 02:52:59;;;;;;;;;;;;;;;21.54;68.15;100762.47;5066308;28;19912;-84
2023/09/20 02:55:51;;;;;;;;;;;;;;;21.75;66.63;100759.81;5079105;28;19912;-85
2023/09/20 02:58:45;;;;;;;;;;;;;;;21.80;66.50;100767.72;5078680;28;19913;-85
2023/09/20 03:01:39;;;;;;;;;;;;;;;21.78;66.44;100764.56;5078450;28;19917;-84
2023/09/20 03:04:31;;;;;;;;;;;;;;;21.92;66.23;100770.16;5072569;28;19912;-84
2023/09/20 03:07:23;;;;;;;;;;;;;;;21.95;66.02;100765.84;5074836;28;19912;-84
2023/09/20 03:10:17;;;;;;;;;;;;;;;22.07;65.37;100762.72;5072833;28;20381;-84
2023/09/20 03:13:09;;;;;;;;;;;;;;;22.02;65.42;100755.59;5078415;28;19916;-85
2023/09/20 03:16:00;;;;;;;;;;;;;;;21.91;65.61;100754.72;5075726;28;19912;-85
2023/09/20 03:18:54;;;;;;;;;;;;;;;21.96;65.71;100764.66;5078651;28;20285;-83
2023/09/20 03:21:46;;;;;;;;;;;;;;;22.06;65.34;100766.66;5072716;28;19924;-84
2023/09/20 03:24:35;;;;;;;;;;;;;;;21.95;64.25;100777.69;5078294;28;19916;-85
2023/09/20 03:27:28;;;;;;;;;;;;;;;22.24;65.53;100784.13;5074019;28;19913;-85
2023/09/20 03:30:20;;;;;;;;;;;;;;;22.42;64.78;100773.06;5078514;28;19916;-85
2023/09/20 03:33:12;;;;;;;;;;;;;;;22.56;63.72;100787.72;5078603;28;19912;-84
2023/09/20 03:36:04;;;;;;;;;;;;;;;22.38;63.29;100778.59;5072903;28;19912;-84
2023/09/20 03:38:57;;;;;;;;;;;;;;;22.47;63.94;100775.44;5076061;28;20324;-83
2023/09/20 03:41:47;;;;;;;;;;;;;;;22.40;62.41;100776.22;5078123;28;19916;-84
2023/09/20 03:44:39;;;;;;;;;;;;;;;22.37;63.76;100787.31;5077699;28;20288;-84
2023/09/20 03:47:31;;;;;;;;;;;;;;;22.29;62.95;100785.72;5073411;28;19912;-83
2023/09/20 03:50:23;;;;;;;;;;;;;;;22.34;62.67;100793.66;5078085;28;19913;-83
2023/09/20 03:53:15;;;;;;;;;;;;;;;22.30;62.15;100779.78;5078149;28;20317;-83
2023/09/20 03:56:08;;;;;;;;;;;;;;;22.16;62.60;100780.53;5076932;28;19913;-84
2023/09/20 03:59:00;;;;;;;;;;;;;;;21.96;63.47;100782.06;5071953;28;19912;-83
2023/09/20 04:01:51;;;;;;;;;;;;;;;21.74;63.98;100781.16;5076111;28;19917;-84
2023/09/20 04:04:43;;;;;;;;;;;;;;;21.73;64.14;100778.78;5072029;28;19912;-84
2023/09/20 04:07:35;;;;;;;;;;;;;;;21.69;64.38;100776.00;5072782;28;19916;-84
2023/09/20 04:10:26;;;;;;;;;;;;;;;21.63;64.31;100782.31;5079058;28;19913;-85
2023/09/20 04:13:18;;;;;;;;;;;;;;;21.69;64.52;100786.25;5078838;28;19912;-84
2023/09/20 04:16:10;;;;;;;;;;;;;;;21.74;64.32;100781.16;5076511;28;19916;-86
2023/09/20 04:18:57;;;;;;;;;;;;;;;21.88;64.20;100783.19;5078689;28;19912;-85
2023/09/20 04:21:50;;;;;;;;;;;;;;;21.81;64.55;100793.44;5070483;28;19921;-84
2023/09/20 04:24:39;;;;;;;;;;;;;;;21.57;65.32;100783.84;5079489;28;20304;-85
2023/09/20 04:27:31;;;;;;;;;;;;;;;21.49;65.51;100771.16;5069777;28;19913;-84
2023/09/20 04:30:21;;;;;;;;;;;;;;;21.45;65.79;100770.34;5061851;28;19916;-84
2023/09/20 04:33:07;;;;;;;;;;;;;;;21.80;64.86;100764.16;5056119;28;19912;-84
2023/09/20 04:36:00;;;;;;;;;;;;;;;21.81;64.67;100771.28;5061702;28;19912;-84
2023/09/20 04:38:52;;;;;;;;;;;;;;;21.62;64.23;100761.34;5055797;28;19912;-85
2023/09/20 04:41:44;;;;;;;;;;;;;;;21.50;65.15;100758.91;5061936;28;20301;-85
2023/09/20 04:44:36;;;;;;;;;;;;;;;21.41;65.04;100758.47;5068163;28;19912;-85
2023/09/20 04:47:28;;;;;;;;;;;;;;;21.33;66.41;100761.19;5062587;28;19912;-83
2023/09/20 04:50:13;;;;;;;;;;;;;;;21.73;65.87;100764.94;5063644;28;19913;-84
2023/09/20 04:53:05;;;;;;;;;;;;;;;22.00;64.21;100774.56;5060967;28;19917;-86
2023/09/20 04:55:57;;;;;;;;;;;;;;;22.26;63.90;100778.19;5055900;28;19913;-87
2023/09/20 04:58:49;;;;;;;;;;;;;;;22.04;62.90;100777.34;5079522;28;19913;-86
2023/09/20 05:01:39;;;;;;;;;;;;;;;22.03;63.27;100786.84;5078516;28;19917;-86
2023/09/20 05:04:31;;;;;;;;;;;;;;;22.28;63.53;100786.91;5078643;28;19916;-86
2023/09/20 05:07:20;;;;;;;;;;;;;;;22.57;62.52;100785.75;5067363;28;20393;-87
2023/09/20 05:10:12;;;;;;;;;;;;;;;22.72;62.09;100790.16;5074615;28;19912;-86
2023/09/20 05:13:04;;;;;;;;;;;;;;;22.75;60.77;100796.91;5073125;28;20297;-86
2023/09/20 05:15:56;;;;;;;;;;;;;;;22.66;61.99;100800.00;5080416;28;19912;-80
2023/09/20 05:18:49;;;;;;;;;;;;;;;22.82;61.54;100810.75;5066043;28;19912;-79
2023/09/20 05:21:41;;;;;;;;;;;;;;;22.94;61.12;100810.34;5070920;28;20377;-78
2023/09/20 05:24:33;;;;;;;;;;;;;;;23.00;60.88;100820.66;5073050;28;19912;-79
2023/09/20 05:27:22;;;;;;;;;;;;;;;22.88;61.19;100815.50;5069905;28;19912;-79
2023/09/20 05:30:13;;;;;;;;;;;;;;;22.92;60.85;100813.53;5079352;28;20285;-78
2023/09/20 05:33:05;;;;;;;;;;;;;;;22.82;60.36;100814.31;5065484;28;20296;-78
2023/09/20 05:35:57;;;;;;;;;;;;;;;22.47;62.32;100814.25;5076878;28;19916;-79
2023/09/20 05:38:49;;;;;;;;;;;;;;;22.71;61.33;100807.97;5074882;28;19912;-78
2023/09/20 05:41:41;;;;;;;;;;;;;;;22.82;60.57;100803.22;5078594;28;19917;-78
2023/09/20 05:44:33;;;;;;;;;;;;;;;22.54;61.56;100792.09;5079659;28;19912;-79
2023/09/20 05:47:25;;;;;;;;;;;;;;;22.13;63.26;100797.94;5068798;28;19913;-78
2023/09/20 05:50:17;;;;;;;;;;;;;;;22.05;63.17;100787.22;5071259;28;19913;-80
2023/09/20 05:53:09;;;;;;;;;;;;;;;21.90;63.95;100783.59;5075114;28;19912;-78
2023/09/20 05:56:06;;;;;;;;;;;;;;;21.91;63.69;100796.25;5072583;28;19935;-78
2023/09/20 05:58:59;;;;;;;;;;;;;;;21.91;64.16;100790.72;5068171;28;19912;-78
2023/09/20 06:01:51;;;;;;;;;;;;;;;22.00;64.14;100791.16;5061416;28;19921;-78
2023/09/20 06:04:43;;;;;;;;;;;;;;;21.94;64.56;100792.72;5066086;28;19916;-79
2023/09/20 06:07:33;;;;;;;;;;;;;;;21.88;65.08;100787.94;5071157;28;20381;-79
2023/09/20 06:10:25;;;;;;;;;;;;;;;22.08;64.97;100784.50;5072882;28;19916;-80
2023/09/20 06:13:17;;;;;;;;;;;;;;;22.14;64.80;100791.25;5076978;28;20369;-79
2023/09/20 06:16:12;;;;;;;;;;;;;;;22.22;64.99;100786.50;5066547;28;19912;-78
2023/09/20 06:19:02;;;;;;;;;;;;;;;22.56;63.82;100800.78;5070599;28;19912;-77
2023/09/20 06:21:54;;;;;;;;;;;;;;;22.80;63.00;100802.84;5067638;28;19921;-77
2023/09/20 06:24:49;;;;;;;;;;;;;;;22.97;62.24;100799.25;5058403;28;19920;-79
2023/09/20 06:27:41;;;;;;;;;;;;;;;23.02;61.90;100801.63;5070606;28;19913;-78
2023/09/20 06:30:33;;;;;;;;;;;;;;;23.05;61.69;100802.03;5070441;28;19912;-77
2023/09/20 06:33:25;;;;;;;;;;;;;;;23.01;61.61;100808.34;5067505;28;19913;-78
2023/09/20 06:36:23;;;;;;;;;;;;;;;22.86;62.66;100803.22;5069787;28;20377;-78
2023/09/20 06:39:15;;;;;;;;;;;;;;;23.03;62.48;100796.88;5065311;28;19916;-77
2023/09/20 06:42:07;;;;;;;;;;;;;;;23.02;62.14;100798.84;5069981;28;19920;-77
2023/09/20 06:44:59;;;;;;;;;;;;;;;22.85;63.18;100809.97;5068477;28;19916;-78
2023/09/20 06:47:51;;;;;;;;;;;;;;;22.92;63.15;100804.41;5067721;28;19912;-77
2023/09/20 06:50:43;;;;;;;;;;;;;;;23.03;62.52;100808.75;5073689;28;19920;-78
2023/09/20 06:53:35;;;;;;;;;;;;;;;23.17;61.94;100819.03;5072386;28;19917;-76
2023/09/20 06:56:27;;;;;;;;;;;;;;;23.24;61.84;100818.25;5066485;28;19920;-78
2023/09/20 06:59:19;;;;;;;;;;;;;;;23.29;61.90;100828.94;5075069;28;19920;-77
2023/09/20 07:02:11;;;;;;;;;;;;;;;23.30;61.72;100819.44;5073209;28;19916;-77
2023/09/20 07:05:03;;;;;;;;;;;;;;;23.34;61.79;100828.53;5076282;28;19912;-77
2023/09/20 07:07:55;;;;;;;;;;;;;;;23.38;61.51;100823.78;5072643;28;19916;-77
2023/09/20 07:10:45;;;;;;;;;;;;;;;23.31;61.51;100829.34;5072469;28;19912;-78
2023/09/20 07:13:38;;;;;;;;;;;;;;;23.36;61.65;100826.97;5075908;28;20377;-77
2023/09/20 07:16:30;;;;;;;;;;;;;;;23.37;61.66;100825.75;5073650;28;19916;-79
2023/09/20 07:19:23;;;;;;;;;;;;;;;23.40;61.49;100826.97;5071984;28;19912;-79
2023/09/20 07:22:15;;;;;;;;;;;;;;;23.50;61.77;100834.50;5075067;28;19920;-78
2023/09/20 07:25:04;;;;;;;;;;;;;;;23.92;60.36;100841.91;5073242;28;19912;-80
2023/09/20 07:27:56;;;;;;;;;;;;;;;24.29;58.95;100838.56;5072672;28;19912;-79
2023/09/20 07:30:48;;;;;;;;;;;;;;;24.45;58.45;100850.00;5074513;28;20336;-78
2023/09/20 07:33:40;;;;;;;;;;;;;;;24.59;58.15;100838.00;5072669;28;19916;-78
2023/09/20 07:36:33;;;;;;;;;;;;;;;24.68;57.81;100838.34;5075336;28;19912;-79
2023/09/20 07:39:25;;;;;;;;;;;;;;;24.79;57.38;100841.06;5074003;28;20288;-79
2023/09/20 07:42:17;;;;;;;;;;;;;;;24.89;57.35;100854.13;5077608;28;19916;-78
2023/09/20 07:45:13;;;;;;;;;;;;;;;25.02;56.79;100858.78;5065610;28;19913;-79
2023/09/20 07:48:05;;;;;;;;;;;;;;;25.22;56.57;100866.56;5051794;28;20429;-79
2023/09/20 07:50:58;;;;;;;;;;;;;;;25.31;56.07;100870.44;5056250;28;19916;-79
2023/09/20 07:53:57;;;;;;;;;;;;;;;25.54;55.11;100878.19;5053950;28;19946;-78
2023/09/20 07:56:52;;;;;;;;;;;;;;;25.84;54.44;100883.06;5051246;28;20300;-78
2023/09/20 07:59:41;;;;;;;;;;;;;;;26.11;54.06;100878.34;5056526;28;20497;-80
2023/09/20 08:02:33;;;;;;;;;;;;;;;25.21;56.21;100876.09;5067559;28;19917;-83
2023/09/20 08:05:25;;;;;;;;;;;;;;;24.88;58.08;100880.34;5070689;28;19912;-83
2023/09/20 08:08:14;;;;;;;;;;;;;;;24.93;57.96;100882.72;5064037;28;19912;-83
2023/09/20 08:11:06;;;;;;;;;;;;;;;24.94;56.95;100876.72;5066322;28;19920;-82
2023/09/20 08:14:00;;;;;;;;;;;;;;;24.45;58.19;100879.78;5070690;28;19912;-82
2023/09/20 08:19:58;;;;;;;;;;;;;;;24.50;57.07;100877.38;5068745;28;19913;-81
2023/09/20 09:00:50;;;;;;;;;;;;;;;25.31;56.30;100884.38;5076235;28;19912;-83
2023/09/20 09:03:43;;;;;;;;;;;;;;;25.03;56.65;100890.19;5080860;28;19916;-80
2023/09/20 09:06:32;;;;;;;;;;;;;;;25.26;56.08;100890.38;5078598;28;19923;-79
2023/09/20 09:09:24;;;;;;;;;;;;;;;25.09;57.10;100892.09;5068122;28;19912;-78
2023/09/20 09:12:16;;;;;;;;;;;;;;;25.49;56.34;100893.34;5068532;28;20374;-77
2023/09/20 09:15:05;;;;;;;;;;;;;;;26.44;53.15;100895.50;5068727;28;19913;-79
2023/09/20 09:17:54;;;;;;;;;;;;;;;26.57;52.90;100900.09;5072984;28;19921;-81
2023/09/20 09:20:46;;;;;;;;;;;;;;;27.33;51.13;100890.16;5077731;28;19916;-80
2023/09/20 09:23:39;;;;;;;;;;;;;;;29.50;45.66;100891.94;5080677;28;20392;-80
2023/09/20 09:26:31;;;;;;;;;;;;;;;29.74;44.39;100891.25;5078289;28;20376;-80
2023/09/20 09:29:21;;;;;;;;;;;;;;;31.13;41.37;100892.75;5076993;28;20249;-82
2023/09/20 09:32:13;;;;;;;;;;;;;;;32.91;36.93;100885.78;5075231;28;20392;-80
2023/09/20 09:35:05;;;;;;;;;;;;;;;34.49;34.46;100890.47;5078678;28;19912;-79
2023/09/20 09:38:01;;;;;;;;;;;;;;;35.35;32.69;100887.13;5074937;28;19913;-84
2023/09/20 09:40:57;;;;;;;;;;;;;;;37.13;30.10;100882.56;5073916;28;19912;-83
2023/09/20 09:43:57;;;;;;;;;;;;;;;36.39;30.26;100879.09;5073651;28;19920;-83
2023/09/20 09:46:49;;;;;;;;;;;;;;;37.55;28.81;100878.47;5056958;28;19916;-82
2023/09/20 09:49:43;;;;;;;;;;;;;;;39.27;26.28;100877.06;5078403;28;19912;-85
2023/09/20 09:52:38;;;;;;;;;;;;;;;40.25;25.57;100873.47;5073918;28;20296;-84
2023/09/20 09:55:29;;;;;;;;;;;;;;;34.62;32.25;100860.00;5067374;28;19916;-82
2023/09/20 09:58:21;;;;;;;;;;;;;;;29.16;44.27;100855.94;5077708;28;19912;-83
2023/09/20 10:01:13;;;;;;;;;;;;;;;29.08;45.08;100849.75;5072655;28;19912;-83
2023/09/20 10:04:08;;;;;;;;;;;;;;;28.95;45.70;100843.28;5079074;28;19920;-85
2023/09/20 10:07:05;;;;;;;;;;;;;;;28.17;47.48;100835.88;5074061;28;20340;-84
2023/09/20 10:09:59;;;;;;;;;;;;;;;27.30;50.32;100835.16;5075288;28;20316;-84
2023/09/20 10:12:49;;;;;;;;;;;;;;;27.36;50.43;100830.66;5069325;28;19913;-82
2023/09/20 10:15:41;;;;;;;;;;;;;;;27.42;51.60;100828.16;5066975;28;19913;-79
2023/09/20 10:18:50;;;;;;;;;;;;;;;27.00;51.64;100822.13;5071871;28;19916;-84
2023/09/20 10:21:40;;;;;;;;;;;;;;;26.60;53.60;100821.16;5064434;28;19913;-82
2023/09/20 10:24:32;;;;;;;;;;;;;;;26.74;53.41;100820.91;5072096;28;19916;-83
2023/09/20 10:27:25;;;;;;;;;;;;;;;27.18;52.15;100821.78;5064219;28;19912;-83
2023/09/20 10:30:14;;;;;;;;;;;;;;;27.53;51.35;100814.81;5055361;28;20378;-82
2023/09/20 10:33:06;;;;;;;;;;;;;;;27.06;51.69;100814.84;5061594;28;19913;-83
2023/09/20 10:35:56;;;;;;;;;;;;;;;27.15;51.42;100817.06;5056008;28;19913;-83
2023/09/20 10:38:46;;;;;;;;;;;;;;;27.09;52.32;100811.19;5068241;28;19913;-86
2023/09/20 10:41:45;;;;;;;;;;;;;;;27.10;51.00;100809.97;5067600;28;19917;-85
2023/09/20 10:44:35;;;;;;;;;;;;;;;27.38;50.49;100799.50;5071264;28;19920;-84
2023/09/20 10:47:27;;;;;;;;;;;;;;;27.42;51.09;100805.81;5063284;28;19912;-83
2023/09/20 10:50:37;;;;;;;;;;;;;;;27.62;50.61;100801.06;5061780;28;19917;-85
2023/09/20 10:53:51;;;;;;;;;;;;;;;27.90;49.76;100800.47;5056019;28;19913;-85
2023/09/20 10:56:53;;;;;;;;;;;;;;;28.27;48.36;100795.69;5055751;28;19913;-84
2023/09/20 10:59:45;;;;;;;;;;;;;;;28.34;47.89;100803.94;5058881;28;19912;-85
2023/09/20 11:02:38;;;;;;;20.65;3.83;;;;;;;28.08;48.76;100791.69;5060022;28;20367;-80
2023/09/20 11:05:32;;;;;;;17.02;4.35;;;;;;;28.21;48.30;100791.84;5069447;28;20051;-82
2023/09/20 11:08:21;;;;;;;13.45;3.38;;;;;;;30.44;42.20;100789.41;5072476;28;20048;-82
2023/09/20 11:11:17;;;;;;;19.25;3.67;;;;;;;29.71;43.89;100790.44;5076181;28;20055;-81
2023/09/20 11:14:12;;;;;;;13.45;3.42;;;;;;;28.94;45.74;100787.72;5073322;28;20542;-81
2023/09/20 11:17:02;;;;;;;;;;;;;;;28.73;45.94;100791.84;5075069;28;20060;-83
2023/09/20 11:19:56;;;;;;;13.52;3.35;;;;;;;28.51;47.92;100783.13;5070954;28;19912;-83
2023/09/20 11:22:48;;;;;;;10.07;2.55;;;;;;;30.63;42.24;100784.03;5070420;28;20048;-80
2023/09/20 11:25:41;;;;;;;22.60;4.57;;;;;;;29.60;44.58;100773.91;5071183;28;20048;-80
2023/09/20 11:28:37;;;;;;;17.88;3.30;;;;;;;29.04;45.92;100779.03;5069262;28;20059;-82
2023/09/20 11:31:35;;;;;;;17.38;3.60;;;;;;;28.81;45.91;100777.22;5059430;28;20052;-82
2023/09/20 11:34:42;;;;;;;8.65;3.00;;;;;;;28.28;47.24;100770.09;5063853;28;20079;-80
2023/09/20 11:37:35;;;;;;;12.05;3.55;;;;;;;28.01;48.12;100778.66;5060123;28;20048;-81
2023/09/20 11:40:31;;;;;;;8.68;2.90;;;;;;;27.86;48.27;100771.78;5059170;28;20079;-81
2023/09/20 11:43:30;;;;;;;10.60;3.08;;;;;;;27.65;48.42;100764.66;5065991;28;20048;-80
2023/09/20 11:46:24;;;;;;;7.60;2.28;;;;;;;27.62;49.00;100747.97;5062013;28;20052;-80
2023/09/20 11:49:14;;;;;;;9.98;2.50;;;;;;;27.68;49.09;100753.84;5058824;28;20391;-80
2023/09/20 11:52:12;;;;;;;17.98;4.03;;;;;;;27.93;49.11;100748.50;5075684;28;20048;-80
2023/09/20 11:55:04;;;;;;;9.32;2.70;;;;;;;27.98;48.47;100743.19;5078421;28;20044;-80
2023/09/20 11:58:00;;;;;;;5.90;2.63;;;;;;;27.80;49.13;100748.38;5076013;28;20206;-80
2023/09/20 12:00:52;;;;;;;11.70;2.17;;;;;;;27.74;49.19;100735.31;5073819;28;20038;-80
2023/09/20 12:03:42;;;;;;;9.95;2.38;;;;;;;27.67;49.23;100727.91;5068542;28;20060;-80
2023/09/20 12:06:36;;;;;;;7.47;2.72;;;;;;;27.53;49.18;100723.38;5063483;28;20035;-79
2023/09/20 12:09:28;;;;;;;;;;;;;;;27.55;49.09;100731.34;5073390;28;20060;-81
2023/09/20 12:12:21;;;;;;;7.80;2.22;;;;;;;27.54;49.70;100721.38;5067670;28;19912;-79
2023/09/20 12:15:15;;;;;;;9.80;3.25;;;;;;;27.48;49.52;100723.84;5062676;28;20043;-81
2023/09/20 12:18:09;;;;;;;15.82;2.75;;;;;;;27.44;49.32;100716.75;5055656;28;20044;-80
2023/09/20 12:21:01;;;;;;;;;;;;;;;27.55;49.76;100711.78;5060756;28;20059;-79
2023/09/20 12:23:56;;;;;;;9.95;2.67;;;;;;;27.74;48.24;100701.78;5064864;28;19920;-79
2023/09/20 12:26:48;;;;;;;15.98;2.95;;;;;;;27.76;48.67;100700.16;5062555;28;20055;-79
2023/09/20 12:29:42;;;;;;;7.32;2.58;;;;;;;27.54;49.20;100696.22;5071272;28;20055;-80
2023/09/20 12:32:37;;;;;;;6.22;2.80;;;;;;;27.56;48.90;100704.97;5072109;28;20043;-79
2023/09/20 12:35:29;;;;;;;;;;;;;;;27.59;49.11;100709.69;5071147;28;20048;-81
2023/09/20 12:38:25;;;;;;;8.93;2.30;;;;;;;27.49;47.35;100702.28;5059245;28;19912;-80
2023/09/20 12:41:20;;;;;;;11.02;3.10;;;;;;;27.77;46.96;100695.34;5061286;28;20516;-81
2023/09/20 12:44:14;;;;;;;8.00;2.45;;;;;;;27.67;47.07;100690.78;5067044;28;20543;-80
2023/09/20 12:47:07;;;;;;;;;;;;;;;27.62;46.53;100700.47;5065231;28;20044;-80
2023/09/20 12:49:58;;;;;;;7.18;2.03;;;;;;;27.58;47.39;100685.78;5067764;28;19912;-79
2023/09/20 12:52:56;;;;;;;12.13;2.78;;;;;;;27.48;47.85;100675.59;5075364;28;20078;-80
2023/09/20 12:55:50;;;;;;;8.73;2.45;;;;;;;27.79;47.76;100676.91;5068766;28;20047;-79
2023/09/20 12:58:43;;;;;;;17.40;2.50;;;;;;;28.01;46.77;100675.19;5066677;28;20036;-80
2023/09/20 13:01:35;;;;;;;9.57;2.78;;;;;;;27.90;46.27;100665.47;5066542;28;20426;-80
2023/09/20 13:04:27;;;;;;;9.25;2.20;;;;;;;28.03;47.04;100664.38;5065503;28;20067;-80
2023/09/20 13:07:17;;;;;;;9.88;2.72;;;;;;;27.99;46.71;100660.84;5063632;28;20052;-79
2023/09/20 13:10:13;;;;;;;8.55;2.05;;;;;;;28.03;46.84;100649.63;5065661;28;20043;-80
2023/09/20 13:13:11;;;;;;;12.43;2.33;;;;;;;28.43;45.79;100648.22;5065159;28;20047;-82
2023/09/20 13:16:05;;;;;;;11.50;2.33;;;;;;;28.41;44.97;100636.69;5057598;28;20043;-81
2023/09/20 13:19:00;;;;;;;12.68;2.75;;;;;;;28.24;44.98;100635.09;5062902;28;20067;-76
2023/09/20 13:21:52;;;;;;;11.05;3.33;;;;;;;28.08;45.19;100624.72;5063735;28;20055;-76
2023/09/20 13:24:47;;;;;;;10.82;2.03;;;;;;;28.13;44.52;100631.81;5067418;28;20047;-77
2023/09/20 13:27:45;;;;;;;14.57;2.60;;;;;;;28.42;43.82;100640.25;5066507;28;20036;-75
2023/09/20 13:30:40;;;;;;;10.57;1.88;;;;;;;31.89;36.15;100628.88;5069040;28;20226;-79
2023/09/20 13:33:35;;;;;;;5.05;2.17;;;;;;;31.12;36.55;100618.63;5064769;28;20039;-79
2023/09/20 13:36:29;;;;;;;9.25;2.03;;;;;;;29.90;39.08;100620.44;5065500;28;20040;-79
2023/09/20 13:39:24;;;;;;;7.47;1.65;;;;;;;29.50;39.25;100606.84;5066467;28;20401;-79
2023/09/20 13:42:19;;;;;;;10.68;3.30;;;;;;;29.66;38.74;100606.72;5064036;28;20044;-78
2023/09/20 13:45:11;;;;;;;;;;;;;;;29.97;39.49;100606.19;5069603;28;20063;-78
2023/09/20 13:48:03;;;;;;;4.70;1.98;;;;;;;29.99;39.67;100609.31;5064095;28;19912;-78
2023/09/20 13:50:57;;;;;;;9.00;2.83;;;;;;;29.18;39.87;100598.59;5054365;28;20394;-79
2023/09/20 13:53:49;;;;;;;;;;;;;;;29.71;39.38;100594.19;5077008;28;20051;-80
2023/09/20 13:56:41;;;;;;;6.07;1.75;;;;;;;29.60;40.06;100588.91;5073055;28;19916;-79
2023/09/20 13:59:35;;;;;;;12.25;2.40;;;;;;;29.14;41.52;100590.28;5062034;28;20528;-79
2023/09/20 14:02:31;;;;;;;5.60;2.00;;;;;;;29.03;41.39;100589.03;5066869;28;20043;-78
2023/09/20 14:05:23;;;;;;;;;;;;;;;28.91;41.22;100577.34;5063099;28;20048;-78
2023/09/20 14:08:17;;;;;;;8.82;2.50;;;;;;;28.76;42.04;100573.38;5062602;28;20292;-78
2023/09/20 14:11:12;;;;;;;7.28;2.63;;;;;;;28.77;42.38;100560.97;5065671;28;20047;-79
2023/09/20 14:14:05;;;;;;;5.70;1.90;;;;;;;28.46;43.64;100554.22;5073777;28;20039;-78
2023/09/20 14:16:59;;;;;;;13.30;2.47;;;;;;;28.25;43.55;100558.38;5062363;28;20055;-78
2023/09/20 14:19:51;;;;;;;;;;;;;;;28.70;42.89;100565.97;5068194;28;20044;-78
2023/09/20 14:22:53;;;;;;;10.60;2.40;;;;;;;28.84;43.00;100557.97;5067144;28;19912;-78
2023/09/20 14:25:50;;;;;;;13.45;2.30;;;;;;;28.65;43.68;100561.66;5070118;28;20056;-77
2023/09/20 14:28:45;;;;;;;15.73;3.38;;;;;;;28.42;44.36;100561.94;5064141;28;20044;-79
2023/09/20 14:31:40;;;;;;;14.30;2.97;;;;;;;27.91;45.15;100556.03;5066623;28;20052;-81
2023/09/20 14:34:33;;;;;;;;;;;;;;;28.42;44.92;100550.75;5065404;28;20520;-78
2023/09/20 14:37:29;;;;;;;7.22;2.67;;;;;;;28.27;45.35;100558.72;5065426;28;19912;-78
2023/09/20 14:40:21;;;;;;;;;;;;;;;28.45;44.54;100550.63;5064333;28;20529;-76
2023/09/20 14:43:15;;;;;;;13.57;3.13;;;;;;;28.40;44.08;100539.97;5070518;28;19912;-76
2023/09/20 14:46:10;;;;;;;14.85;3.70;;;;;;;28.29;44.12;100538.72;5074432;28;20412;-76
2023/09/20 14:49:02;;;;;;;;;;;;;;;28.20;44.53;100532.94;5073150;28;20043;-76
2023/09/20 14:51:56;;;;;;;13.23;3.10;;;;;;;28.08;46.33;100529.63;5073437;28;19938;-75
2023/09/20 14:54:47;;;;;;;11.25;3.17;;;;;;;28.15;46.71;100536.28;5073992;28;20048;-75
2023/09/20 14:57:41;;;;;;;10.00;3.72;;;;;;;27.91;48.76;100528.06;5071950;28;20052;-77
2023/09/20 15:00:36;;;;;;;18.75;3.50;;;;;;;27.73;48.60;100535.34;5069273;28;20405;-76
2023/09/20 15:03:33;;;;;;;10.45;2.58;;;;;;;27.64;49.15;100541.53;5067200;28;20052;-76